createdAt,value
2022-11-04T00:01:34.649Z,9.18
2022-11-04T00:04:02.443Z,11.14
2022-11-04T00:06:30.244Z,10.36
2022-11-04T00:08:59.581Z,11.46
2022-11-04T00:11:42.824Z,10.11
2022-11-04T00:14:12.433Z,8.97
2022-11-04T00:17:01.617Z,8.99
2022-11-04T00:19:49.627Z,11.30
2022-11-04T00:22:35.511Z,10.24
2022-11-04T00:25:21.329Z,8.67
2022-11-04T00:28:06.829Z,10.50
2022-11-04T00:30:34.994Z,10.89
2022-11-04T00:33:23.268Z,9.29
2022-11-04T00:35:52.027Z,8.44
2022-11-04T00:38:20.535Z,8.78
2022-11-04T00:40:48.550Z,9.66
2022-11-04T00:43:19.674Z,9.24
2022-11-04T00:45:47.631Z,9.18
2022-11-04T00:48:16.778Z,8.71
2022-11-04T00:50:44.662Z,10.87
2022-11-04T00:53:12.618Z,8.52
2022-11-04T00:55:40.430Z,9.53
2022-11-04T00:58:08.325Z,8.15
2022-11-04T01:00:36.242Z,10.15
2022-11-04T01:03:04.287Z,9.16
2022-11-04T01:05:34.581Z,10.64
2022-11-04T01:08:04.479Z,9.00
2022-11-04T01:10:47.871Z,8.95
2022-11-04T01:13:16.009Z,10.48
2022-11-04T01:15:45.312Z,9.75
2022-11-04T01:18:13.395Z,9.62
2022-11-04T01:20:43.366Z,9.79
2022-11-04T01:26:44.006Z,9.24
2022-11-04T01:29:12.319Z,9.45
2022-11-04T01:31:41.057Z,8.83
2022-11-04T01:34:10.472Z,7.47
2022-11-04T01:36:40.322Z,9.83
2022-11-04T01:39:10.198Z,9.62
2022-11-04T01:41:52.432Z,8.84
2022-11-04T01:44:48.679Z,6.46
2022-11-04T01:47:19.643Z,9.17
2022-11-04T01:49:51.862Z,6.66
2022-11-04T02:15:57.797Z,8.63
2022-11-04T02:18:59.467Z,8.47
2022-11-04T02:21:59.575Z,8.22
2022-11-04T02:50:52.637Z,7.53
2022-11-04T02:53:24.596Z,7.43
2022-11-04T02:55:56.015Z,7.21
2022-11-04T02:58:28.431Z,7.40
2022-11-04T03:01:03.312Z,7.31
2022-11-04T03:07:52.849Z,7.42
2022-11-04T03:10:25.916Z,7.46
2022-11-04T03:12:59.518Z,7.52
2022-11-04T03:18:53.922Z,7.56
2022-11-04T03:21:44.492Z,7.58
2022-11-04T03:26:11.935Z,7.51
2022-11-04T03:28:47.391Z,7.46
2022-11-04T03:31:24.228Z,7.34
2022-11-04T03:33:56.304Z,7.15
2022-11-04T03:36:24.541Z,7.21
2022-11-04T03:38:54.248Z,7.11
2022-11-04T03:41:29.272Z,7.21
2022-11-04T03:44:00.873Z,7.15
2022-11-04T03:50:54.248Z,7.01
2022-11-04T03:53:23.875Z,6.93
2022-11-04T03:56:04.993Z,6.88
2022-11-04T03:58:43.890Z,6.67
2022-11-04T04:01:28.792Z,6.79
2022-11-04T04:04:01.654Z,6.73
2022-11-04T04:06:34.330Z,6.70
2022-11-04T04:09:13.838Z,6.63
2022-11-04T04:11:45.874Z,6.36
2022-11-04T04:14:39.045Z,6.56
2022-11-04T04:17:11.677Z,6.49
2022-11-04T04:19:42.951Z,6.44
2022-11-04T04:22:31.951Z,5.87
2022-11-04T04:28:24.656Z,6.34
2022-11-04T04:30:57.656Z,6.23
2022-11-04T04:37:09.120Z,6.01
2022-11-04T04:39:58.985Z,6.16
2022-11-04T04:42:44.249Z,6.24
2022-11-04T04:45:20.322Z,5.88
2022-11-04T04:52:04.468Z,6.14
2022-11-04T04:54:32.463Z,6.09
2022-11-04T04:57:01.672Z,6.00
2022-11-04T04:59:29.373Z,6.05
2022-11-04T05:01:57.202Z,5.97
2022-11-04T05:04:24.961Z,5.94
2022-11-04T05:06:52.996Z,6.00
2022-11-04T05:09:20.741Z,6.01
2022-11-04T05:11:48.613Z,5.81
2022-11-04T05:14:17.680Z,5.93
2022-11-04T05:16:45.426Z,5.74
2022-11-04T05:19:13.163Z,5.46
2022-11-04T05:21:41.011Z,5.81
2022-11-04T05:24:11.094Z,5.49
2022-11-04T05:26:41.563Z,5.69
2022-11-04T05:29:10.666Z,5.75
2022-11-04T05:31:40.180Z,5.63
2022-11-04T05:34:08.061Z,5.68
2022-11-04T05:36:35.878Z,5.65
2022-11-04T05:39:03.651Z,5.61
2022-11-04T05:41:31.545Z,5.59
2022-11-04T05:44:00.919Z,5.57
2022-11-04T05:46:29.489Z,5.51
2022-11-04T05:48:58.569Z,5.48
2022-11-04T05:51:28.597Z,5.45
2022-11-04T05:53:56.363Z,5.35
2022-11-04T05:56:24.073Z,5.36
2022-11-04T05:58:51.949Z,5.26
2022-11-04T06:01:32.097Z,5.25
2022-11-04T06:04:02.733Z,5.21
2022-11-04T06:06:32.131Z,5.17
2022-11-04T06:09:00.532Z,4.84
2022-11-04T06:11:30.818Z,5.08
2022-11-04T06:13:58.697Z,5.00
2022-11-04T06:16:26.957Z,4.87
2022-11-04T06:18:55.060Z,5.02
2022-11-04T06:21:27.852Z,5.01
2022-11-04T06:23:57.190Z,4.99
2022-11-04T06:26:28.284Z,4.93
2022-11-04T06:28:56.719Z,5.05
2022-11-04T06:31:24.639Z,5.07
2022-11-04T06:33:52.396Z,5.09
2022-11-04T06:36:20.147Z,5.09
2022-11-04T06:38:49.206Z,5.08
2022-11-04T06:41:18.199Z,5.07
2022-11-04T06:43:46.321Z,5.08
2022-11-04T06:46:28.389Z,5.13
2022-11-04T06:48:57.596Z,5.15
2022-11-04T06:51:25.890Z,5.25
2022-11-04T06:53:55.151Z,5.31
2022-11-04T06:56:22.990Z,5.41
2022-11-04T06:58:51.506Z,5.51
2022-11-04T07:01:22.354Z,5.59
2022-11-04T07:03:51.099Z,5.63
2022-11-04T07:06:19.580Z,5.63
2022-11-04T07:08:47.289Z,6.09
2022-11-04T07:11:17.026Z,6.25
2022-11-04T07:13:44.914Z,6.45
2022-11-04T07:16:12.656Z,6.67
2022-11-04T07:18:40.685Z,6.69
2022-11-04T07:21:10.291Z,7.00
2022-11-04T07:23:38.414Z,7.15
2022-11-04T07:26:08.587Z,7.98
2022-11-04T07:28:37.721Z,8.30
2022-11-04T07:31:07.447Z,8.44
2022-11-04T07:33:35.696Z,8.29
2022-11-04T07:36:09.595Z,8.52
2022-11-04T07:38:37.585Z,8.52
2022-11-04T07:41:05.949Z,8.52
2022-11-04T07:43:34.031Z,8.46
2022-11-04T07:46:07.095Z,8.57
2022-11-04T07:48:35.179Z,8.56
2022-11-04T07:51:03.435Z,8.52
2022-11-04T07:53:31.935Z,8.16
2022-11-04T07:56:00.073Z,8.52
2022-11-04T07:58:27.850Z,8.54
2022-11-04T08:00:59.564Z,8.58
2022-11-04T08:03:29.046Z,8.32
2022-11-04T08:05:57.850Z,8.78
2022-11-04T08:08:26.016Z,8.93
2022-11-04T08:10:54.880Z,9.06
2022-11-04T08:13:23.026Z,9.16
2022-11-04T08:15:50.780Z,8.80
2022-11-04T08:18:18.572Z,9.24
2022-11-04T08:20:50.946Z,9.41
2022-11-04T08:23:19.098Z,9.53
2022-11-04T08:25:47.548Z,9.63
2022-11-04T08:28:17.569Z,9.60
2022-11-04T08:30:54.141Z,9.79
2022-11-04T08:33:22.354Z,9.89
2022-11-04T08:35:51.576Z,9.96
2022-11-04T08:38:19.459Z,9.97
2022-11-04T08:40:47.336Z,9.85
2022-11-04T08:43:15.253Z,9.98
2022-11-04T08:45:45.544Z,10.44
2022-11-04T08:48:15.459Z,10.55
2022-11-04T08:50:43.808Z,10.69
2022-11-04T08:53:12.884Z,10.84
2022-11-04T08:55:40.713Z,11.00
2022-11-04T08:58:08.820Z,11.05
2022-11-04T09:00:36.919Z,11.15
2022-11-04T09:03:05.209Z,11.20
2022-11-04T09:05:33.952Z,11.21
2022-11-04T09:08:02.051Z,11.19
2022-11-04T09:10:31.170Z,11.15
2022-11-04T09:12:58.903Z,11.37
2022-11-04T09:15:27.032Z,11.53
2022-11-04T09:17:54.784Z,11.47
2022-11-04T09:20:25.405Z,11.73
2022-11-04T09:23:07.327Z,11.79
2022-11-04T09:25:37.213Z,12.02
2022-11-04T09:28:05.608Z,12.70
2022-11-04T09:30:33.662Z,13.30
2022-11-04T09:33:01.407Z,13.51
2022-11-04T09:35:29.386Z,13.42
2022-11-04T09:38:00.546Z,13.91
2022-11-04T09:40:35.333Z,14.40
2022-11-04T09:43:25.227Z,14.41
2022-11-04T09:45:54.387Z,15.13
2022-11-04T09:48:29.575Z,15.63
2022-11-04T09:51:02.314Z,15.61
2022-11-04T09:53:40.486Z,17.13
2022-11-04T09:56:15.735Z,17.66
2022-11-04T09:58:45.313Z,18.11
2022-11-04T10:01:28.136Z,18.78
2022-11-04T10:04:19.415Z,19.37
2022-11-04T10:07:06.598Z,19.21
2022-11-04T10:09:48.213Z,18.90
2022-11-04T10:12:27.619Z,18.77
2022-11-04T10:15:31.612Z,18.77
2022-11-04T10:18:13.007Z,18.25
2022-11-04T10:20:51.675Z,17.47
2022-11-04T10:23:27.479Z,17.04
2022-11-04T10:26:02.310Z,16.53
2022-11-04T10:28:36.494Z,16.82
2022-11-04T10:31:06.672Z,16.69
2022-11-04T10:33:36.447Z,16.38
2022-11-04T10:36:08.086Z,16.21
2022-11-04T10:38:40.701Z,16.18
2022-11-04T10:41:27.485Z,16.21
2022-11-04T10:43:59.787Z,16.20
2022-11-04T10:46:52.564Z,16.20
2022-11-04T10:50:22.357Z,16.15
2022-11-04T10:52:43.263Z,15.94
2022-11-04T10:55:27.486Z,15.87
2022-11-04T10:57:57.352Z,15.93
2022-11-04T11:00:37.090Z,15.54
2022-11-04T11:03:24.274Z,15.91
2022-11-04T11:05:52.546Z,15.91
2022-11-04T11:08:32.700Z,16.00
2022-11-04T11:11:00.936Z,16.13
2022-11-04T11:13:35.481Z,16.26
2022-11-04T11:16:13.762Z,16.40
2022-11-04T11:18:42.900Z,16.49
2022-11-04T11:21:13.851Z,16.48
2022-11-04T11:23:47.577Z,16.32
2022-11-04T11:26:18.180Z,16.84
2022-11-04T11:28:57.420Z,17.17
2022-11-04T11:31:27.222Z,17.28
2022-11-04T11:33:58.834Z,16.96
2022-11-04T11:36:29.143Z,17.03
2022-11-04T11:39:05.477Z,16.88
2022-11-04T11:41:39.538Z,16.97
2022-11-04T11:44:21.999Z,17.09
2022-11-04T11:46:55.445Z,17.55
2022-11-04T11:49:30.795Z,18.04
2022-11-04T11:52:55.389Z,18.07
2022-11-04T11:55:26.293Z,17.79
2022-11-04T12:01:05.262Z,18.74
2022-11-04T12:09:42.549Z,22.96
2022-11-04T12:12:23.264Z,23.31
2022-11-04T12:15:09.255Z,22.33
2022-11-04T12:17:50.406Z,21.04
2022-11-04T12:20:34.056Z,20.91
2022-11-04T12:23:11.173Z,22.07
2022-11-04T12:25:49.585Z,21.30
2022-11-04T12:28:28.721Z,20.13
2022-11-04T12:31:19.616Z,19.11
2022-11-04T12:34:00.036Z,18.40
2022-11-04T12:36:44.026Z,17.86
2022-11-04T12:39:28.754Z,17.40
2022-11-04T12:42:21.007Z,17.02
2022-11-04T12:45:02.652Z,16.68
2022-11-04T12:47:37.817Z,16.47
2022-11-04T12:50:32.220Z,16.25
2022-11-04T12:53:17.982Z,15.95
2022-11-04T12:55:53.568Z,15.71
2022-11-04T12:58:38.488Z,15.54
2022-11-04T13:01:15.144Z,15.33
2022-11-04T13:03:50.420Z,15.14
2022-11-04T13:06:25.271Z,14.96
2022-11-04T13:08:57.964Z,14.45
2022-11-04T13:11:32.330Z,14.63
2022-11-04T13:14:05.181Z,14.49
2022-11-04T13:16:37.972Z,14.41
2022-11-04T13:19:06.998Z,14.31
2022-11-04T13:21:39.108Z,13.73
2022-11-04T13:24:16.797Z,13.90
2022-11-04T13:26:46.116Z,14.11
2022-11-04T13:29:17.351Z,14.04
2022-11-04T13:31:54.065Z,14.23
2022-11-04T13:34:32.969Z,14.29
2022-11-04T13:37:11.224Z,14.32
2022-11-04T13:39:45.980Z,14.35
2022-11-04T13:42:38.398Z,14.17
2022-11-04T13:45:11.981Z,13.98
2022-11-04T13:47:48.525Z,14.05
2022-11-04T13:50:32.692Z,13.88
2022-11-04T13:53:03.154Z,13.91
2022-11-04T13:55:35.379Z,13.91
2022-11-04T13:58:07.546Z,13.96
2022-11-04T14:00:37.321Z,13.89
2022-11-04T14:03:38.306Z,14.10
2022-11-04T14:06:08.849Z,14.18
2022-11-04T14:08:36.634Z,13.90
2022-11-04T14:11:12.806Z,14.39
2022-11-04T14:14:05.278Z,14.57
2022-11-04T14:16:46.890Z,14.70
2022-11-04T14:19:56.905Z,14.72
2022-11-04T14:22:36.869Z,14.71
2022-11-04T14:25:22.466Z,14.63
2022-11-04T14:27:51.756Z,14.52
2022-11-04T14:30:46.708Z,14.53
2022-11-04T14:33:36.179Z,14.40
2022-11-04T14:36:35.485Z,14.51
2022-11-04T14:39:06.862Z,14.26
2022-11-04T14:41:53.676Z,13.93
2022-11-04T14:44:32.253Z,13.69
2022-11-04T14:47:08.281Z,13.45
2022-11-04T14:49:43.950Z,13.27
2022-11-04T14:52:25.354Z,12.92
2022-11-04T14:54:58.568Z,13.04
2022-11-04T14:57:26.297Z,12.67
2022-11-04T14:59:54.052Z,12.95
2022-11-04T15:02:25.743Z,12.92
2022-11-04T15:04:58.705Z,12.89
2022-11-04T15:07:38.105Z,12.80
2022-11-04T15:10:24.446Z,12.67
2022-11-04T15:12:55.095Z,12.61
2022-11-04T15:15:36.923Z,12.41
2022-11-04T15:18:09.797Z,12.50
2022-11-04T15:20:45.890Z,12.12
2022-11-04T15:23:17.524Z,12.40
2022-11-04T15:25:47.218Z,12.34
2022-11-04T15:28:20.899Z,12.09
2022-11-04T15:31:03.643Z,12.18
2022-11-04T15:33:36.153Z,12.12
2022-11-04T15:36:04.509Z,12.06
2022-11-04T15:38:33.552Z,12.02
2022-11-04T15:41:22.779Z,11.99
2022-11-04T15:43:49.795Z,11.87
2022-11-04T15:46:19.741Z,11.95
2022-11-04T15:49:04.339Z,11.92
2022-11-04T15:51:37.687Z,11.91
2022-11-04T15:54:09.117Z,11.89
2022-11-04T15:56:43.007Z,11.82
2022-11-04T15:59:16.369Z,11.82
2022-11-04T16:01:50.050Z,11.77
2022-11-04T16:04:22.445Z,11.75
2022-11-04T16:07:05.077Z,11.72
2022-11-04T16:09:45.585Z,11.36
2022-11-04T16:12:18.638Z,11.59
2022-11-04T16:14:52.310Z,11.49
2022-11-04T16:17:20.124Z,11.63
2022-11-04T16:19:53.148Z,11.59
2022-11-04T16:22:27.239Z,11.60
2022-11-04T16:24:56.397Z,11.60
2022-11-04T16:27:25.083Z,11.52
2022-11-04T16:30:03.540Z,11.30
2022-11-04T16:32:40.437Z,11.65
2022-11-04T16:35:16.450Z,11.57
2022-11-04T16:37:44.547Z,11.54
2022-11-04T16:40:12.824Z,11.63
2022-11-04T16:42:40.650Z,11.63
2022-11-04T16:45:17.941Z,11.42
2022-11-04T16:47:45.745Z,11.58
2022-11-04T16:50:17.405Z,11.52
2022-11-04T16:52:45.674Z,11.36
2022-11-04T16:55:14.508Z,11.51
2022-11-04T16:57:42.456Z,11.54
2022-11-04T17:00:18.991Z,11.50
2022-11-04T17:02:47.205Z,11.37
2022-11-04T17:05:16.742Z,11.42
2022-11-04T17:07:55.552Z,11.29
2022-11-04T17:10:33.326Z,11.32
2022-11-04T17:13:01.223Z,9.48
2022-11-04T17:15:29.763Z,11.02
2022-11-04T17:17:58.229Z,10.68
2022-11-04T17:20:31.616Z,11.19
2022-11-04T17:23:00.729Z,9.53
2022-11-04T17:25:31.321Z,11.06
2022-11-04T17:28:00.213Z,10.43
2022-11-04T17:30:28.371Z,10.64
2022-11-04T17:32:56.262Z,10.51
2022-11-04T17:35:24.077Z,10.82
2022-11-04T17:37:53.882Z,10.93
2022-11-04T17:40:24.131Z,10.72
2022-11-04T17:43:12.163Z,8.54
2022-11-04T17:45:42.065Z,10.66
2022-11-04T17:48:11.182Z,9.58
2022-11-04T17:50:41.266Z,10.77
2022-11-04T17:53:13.258Z,10.16
2022-11-04T17:55:43.903Z,10.45
2022-11-04T17:58:12.061Z,10.69
2022-11-04T18:00:40.922Z,10.52
2022-11-04T18:10:51.370Z,10.16
2022-11-04T18:13:26.294Z,9.97
2022-11-04T18:16:19.544Z,9.46
2022-11-04T18:19:22.441Z,9.91
2022-11-04T18:25:48.165Z,9.80
2022-11-04T18:28:27.064Z,9.64
2022-11-04T18:30:59.900Z,9.48
2022-11-04T18:33:27.976Z,9.53
2022-11-04T18:35:56.601Z,7.40
2022-11-04T18:38:25.327Z,9.34
2022-11-04T18:41:02.789Z,8.12
2022-11-04T18:43:37.319Z,9.31
2022-11-04T18:46:09.407Z,9.91
2022-11-04T18:48:41.129Z,9.94
2022-11-04T18:51:14.001Z,8.60
2022-11-04T18:53:42.272Z,9.33
2022-11-04T18:56:15.893Z,7.40
2022-11-04T18:58:46.671Z,7.56
2022-11-04T19:01:19.242Z,9.45
2022-11-04T19:03:48.316Z,9.57
2022-11-04T19:06:19.358Z,9.50
2022-11-04T19:08:53.422Z,9.43
2022-11-04T19:11:25.292Z,9.18
2022-11-04T19:14:16.472Z,9.18
2022-11-04T19:16:44.917Z,9.04
2022-11-04T19:19:20.613Z,9.19
2022-11-04T19:21:52.561Z,9.13
2022-11-04T19:47:38.770Z,8.51
2022-11-04T19:50:14.935Z,8.50
2022-11-04T19:52:43.147Z,8.49
2022-11-04T19:55:11.335Z,8.51
2022-11-04T19:57:39.724Z,8.10
2022-11-04T20:00:08.869Z,8.55
2022-11-04T20:02:41.287Z,8.57
2022-11-04T20:05:10.420Z,8.60
2022-11-04T20:07:39.311Z,8.65
2022-11-04T20:10:08.262Z,8.70
2022-11-04T20:12:54.425Z,8.72
2022-11-04T20:15:27.478Z,8.81
2022-11-04T20:18:03.520Z,8.69
2022-11-04T20:20:40.931Z,8.68
2022-11-04T20:23:09.069Z,8.74
2022-11-04T20:25:36.926Z,8.81
2022-11-04T20:28:05.840Z,8.73
2022-11-04T20:30:37.706Z,8.67
2022-11-04T20:33:07.239Z,8.30
2022-11-04T20:35:38.500Z,8.89
2022-11-04T20:38:07.351Z,8.58
2022-11-04T20:40:35.684Z,8.89
2022-11-04T20:46:20.496Z,8.56
2022-11-04T20:48:50.872Z,8.74
2022-11-04T20:51:20.726Z,8.30
2022-11-04T20:53:49.111Z,8.27
2022-11-04T20:56:20.665Z,8.70
2022-11-04T20:58:51.998Z,8.45
2022-11-04T21:01:39.470Z,8.39
2022-11-04T21:04:18.755Z,8.59
2022-11-04T21:06:48.517Z,8.65
2022-11-04T21:09:20.211Z,8.66
2022-11-04T21:11:48.975Z,8.33
2022-11-04T21:14:20.466Z,8.62
2022-11-04T21:17:01.673Z,8.52
2022-11-04T21:32:07.398Z,8.59
2022-11-04T21:34:37.290Z,8.63
2022-11-04T21:58:11.963Z,8.47
2022-11-04T22:01:09.279Z,8.46
2022-11-04T22:06:24.934Z,8.29
2022-11-04T22:30:48.201Z,8.36
2022-11-04T22:33:20.705Z,8.20
2022-11-04T22:44:37.877Z,8.37
2022-11-04T22:47:53.835Z,8.43
2022-11-04T22:51:35.427Z,8.47
2022-11-04T22:54:08.281Z,8.51
2022-11-04T22:56:37.629Z,8.32
2022-11-04T23:01:50.811Z,8.47
2022-11-04T23:17:05.254Z,8.64
2022-11-04T23:19:33.663Z,8.88
2022-11-04T23:25:16.816Z,8.96
2022-11-04T23:28:12.970Z,8.59
2022-11-04T23:51:56.593Z,9.17
2022-11-04T23:55:50.030Z,9.19
